Time;durP1;ratioP1;P1;durP2;ratioP2;P2;SDS_P1;SDS_P2;PMS_P1;PMS_P2;Temp;Humidity;BMP_temperature;BMP_pressure;BME280_temperature;BME280_humidity;BME280_pressure;Samples;Min_cycle;Max_cycle;Signal;HPM_P1;HPM_P2
2024/04/08 00:01:41;;;;;;;4.05;1.67;;;;;;;16.35;100.00;101084.75;5583230;26;20074;-75
2024/04/08 00:04:13;;;;;;;3.78;1.48;;;;;;;16.09;100.00;101058.41;5579384;26;20011;-75
2024/04/08 00:06:45;;;;;;;3.47;1.35;;;;;;;16.14;100.00;101061.41;5576211;26;20012;-75
2024/04/08 00:09:17;;;;;;;3.95;1.35;;;;;;;16.19;100.00;101064.41;5576755;26;20005;-75
2024/04/08 00:11:49;;;;;;;2.67;1.20;;;;;;;16.13;100.00;101067.66;5578328;26;20048;-76
2024/04/08 00:14:21;;;;;;;5.70;1.60;;;;;;;16.01;100.00;101059.22;5576005;26;20014;-74
2024/04/08 00:16:53;;;;;;;4.43;1.50;;;;;;;16.14;100.00;101082.56;5580293;26;20075;-73
2024/04/08 00:19:27;;;;;;;3.63;1.15;;;;;;;16.18;100.00;101072.50;5579398;26;20023;-75
2024/04/08 00:21:59;;;;;;;2.47;1.30;;;;;;;16.01;100.00;101066.31;5576392;26;20001;-72
2024/04/08 00:24:31;;;;;;;4.78;1.75;;;;;;;16.05;100.00;101070.28;5589834;26;20023;-76
2024/04/08 00:27:03;;;;;;;3.35;1.40;;;;;;;16.08;100.00;101067.34;5575929;26;20366;-76
2024/04/08 00:29:35;;;;;;;4.40;1.60;;;;;;;16.02;100.00;101042.41;5577679;26;20008;-76
2024/04/08 00:32:09;;;;;;;3.50;1.40;;;;;;;15.95;100.00;101037.91;5578508;26;20506;-76
2024/04/08 00:34:41;;;;;;;5.05;1.08;;;;;;;15.98;100.00;101048.13;5577044;26;20515;-76
2024/04/08 00:37:13;;;;;;;3.38;1.25;;;;;;;16.05;100.00;101051.78;5578327;26;20471;-76
2024/04/08 00:39:45;;;;;;;3.58;1.30;;;;;;;15.97;100.00;101043.84;5574530;26;20016;-76
2024/04/08 00:42:17;;;;;;;3.30;1.38;;;;;;;16.01;100.00;101039.91;5574238;26;20004;-76
2024/04/08 00:44:49;;;;;;;2.72;1.20;;;;;;;15.95;100.00;101043.19;5579821;26;20023;-76
2024/04/08 00:47:21;;;;;;;3.17;1.58;;;;;;;15.85;100.00;101024.81;5577749;26;20004;-72
2024/04/08 00:49:53;;;;;;;3.50;1.40;;;;;;;15.92;100.00;101033.75;5567636;26;20305;-73
2024/04/08 00:52:25;;;;;;;3.05;0.95;;;;;;;15.92;100.00;101032.94;5566079;26;20294;-76
2024/04/08 00:54:57;;;;;;;3.78;1.38;;;;;;;15.90;100.00;101034.91;5581130;26;20515;-74
2024/04/08 00:57:31;;;;;;;3.30;1.45;;;;;;;15.93;100.00;101026.66;5588412;26;20012;-75
2024/04/08 01:00:04;;;;;;;3.70;1.20;;;;;;;15.81;100.00;101008.47;5576360;26;20005;-75
2024/04/08 01:02:36;;;;;;;4.00;1.50;;;;;;;15.95;100.00;101017.59;5571626;26;20304;-75
2024/04/08 01:05:13;;;;;;;3.10;1.27;;;;;;;15.88;100.00;101013.13;5565503;26;20015;-73
2024/04/08 01:07:46;;;;;;;2.97;1.42;;;;;;;15.84;100.00;101003.84;5562318;26;20036;-73
2024/04/08 01:10:17;;;;;;;3.07;1.37;;;;;;;15.86;100.00;101013.25;5560455;26;20197;-76
2024/04/08 01:12:49;;;;;;;3.25;1.25;;;;;;;15.87;100.00;101020.19;5560830;26;20085;-76
2024/04/08 01:15:21;;;;;;;3.47;1.58;;;;;;;15.89;100.00;101028.78;5561657;26;20032;-74
2024/04/08 01:17:55;;;;;;;3.10;1.50;;;;;;;15.85;100.00;101014.25;5577042;26;20311;-72
2024/04/08 01:20:27;;;;;;;2.13;1.17;;;;;;;15.82;100.00;101004.00;5564255;26;20036;-74
2024/04/08 01:23:01;;;;;;;2.55;1.38;;;;;;;15.78;100.00;101003.50;5565178;26;20813;-73
2024/04/08 01:25:34;;;;;;;4.13;1.27;;;;;;;15.85;100.00;101008.16;5562506;26;20019;-76
2024/04/08 01:28:06;;;;;;;;;;;;;;;16.64;100.00;101017.38;5574173;26;20018;-73
2024/04/08 01:30:38;;;;;;;3.95;1.35;;;;;;;15.91;100.00;101010.13;5561318;26;19985;-76
2024/04/08 01:33:10;;;;;;;4.23;1.20;;;;;;;15.80;100.00;101001.53;5553663;26;20016;-76
2024/04/08 01:35:42;;;;;;;3.25;1.45;;;;;;;15.71;100.00;100991.09;5561483;26;20330;-75
2024/04/08 01:38:14;;;;;;;2.88;1.27;;;;;;;15.74;100.00;100996.88;5562388;26;20465;-76
2024/04/08 01:40:48;;;;;;;3.00;1.25;;;;;;;15.86;100.00;100999.22;5564297;26;20009;-76
2024/04/08 01:43:21;;;;;;;2.83;1.33;;;;;;;15.80;100.00;101008.63;5562255;26;20040;-74
2024/04/08 01:45:53;;;;;;;3.43;1.50;;;;;;;15.79;100.00;100994.56;5560260;26;20022;-74
2024/04/08 01:48:24;;;;;;;2.60;1.27;;;;;;;15.77;100.00;100988.63;5559397;26;20238;-73
2024/04/08 01:50:56;;;;;;;3.60;1.30;;;;;;;15.78;100.00;100992.09;5563773;26;20564;-74
2024/04/08 01:53:29;;;;;;;2.85;1.33;;;;;;;15.79;100.00;101005.13;5550118;26;21402;-75
2024/04/08 01:56:00;;;;;;;2.05;1.35;;;;;;;15.87;100.00;100995.59;5561693;26;20016;-73
2024/04/08 01:58:32;;;;;;;3.67;1.10;;;;;;;15.78;100.00;100982.34;5559731;26;20017;-76
2024/04/08 02:01:04;;;;;;;3.20;1.23;;;;;;;15.82;100.00;100994.25;5559931;26;20005;-73
2024/04/08 02:03:36;;;;;;;5.15;2.28;;;;;;;15.81;100.00;100992.59;5562069;26;20005;-76
2024/04/08 02:06:08;;;;;;;2.67;1.23;;;;;;;15.81;100.00;100987.31;5563101;26;20009;-75
2024/04/08 02:08:40;;;;;;;3.13;1.35;;;;;;;15.82;100.00;100975.75;5560798;26;20487;-73
2024/04/08 02:11:12;;;;;;;3.60;1.35;;;;;;;15.81;100.00;100979.41;5559530;26;20013;-76
2024/04/08 02:13:44;;;;;;;2.55;1.20;;;;;;;15.85;100.00;100979.91;5561887;26;20004;-75
2024/04/08 02:16:16;;;;;;;3.20;1.53;;;;;;;15.88;100.00;100982.22;5559644;26;20007;-76
2024/04/08 02:18:51;;;;;;;3.80;1.38;;;;;;;15.98;100.00;100974.16;5557658;26;20634;-74
2024/04/08 02:21:23;;;;;;;2.13;1.20;;;;;;;15.91;100.00;100981.06;5558143;26;20532;-74
2024/04/08 02:23:54;;;;;;;3.13;1.40;;;;;;;15.81;100.00;100982.03;5556756;26;20014;-76
2024/04/08 02:26:27;;;;;;;3.85;1.70;;;;;;;15.85;100.00;100973.81;5559880;26;20011;-73
2024/04/08 02:28:59;;;;;;;4.47;1.63;;;;;;;15.86;100.00;100975.44;5561333;26;20008;-76
2024/04/08 02:31:31;;;;;;;3.83;1.88;;;;;;;15.84;100.00;100972.16;5560872;26;20015;-76
2024/04/08 02:34:03;;;;;;;3.35;2.00;;;;;;;15.79;100.00;100962.03;5558092;26;20094;-75
2024/04/08 02:36:35;;;;;;;4.65;2.45;;;;;;;15.75;100.00;100943.03;5559402;26;20008;-74
2024/04/08 02:39:08;;;;;;;5.68;2.28;;;;;;;15.71;100.00;100922.41;5563949;26;20647;-73
2024/04/08 02:41:40;;;;;;;3.22;1.92;;;;;;;15.80;100.00;100932.03;5566685;26;20851;-76
2024/04/08 02:44:12;;;;;;;4.47;1.98;;;;;;;15.71;100.00;100931.16;5566341;26;20012;-75
2024/04/08 02:46:43;;;;;;;5.82;2.60;;;;;;;15.71;100.00;100933.78;5563056;26;20129;-79
2024/04/08 02:49:15;;;;;;;4.63;2.30;;;;;;;15.73;100.00;100936.28;5567014;26;20040;-75
2024/04/08 02:51:47;;;;;;;4.32;2.40;;;;;;;15.73;100.00;100947.69;5565158;26;20016;-75
2024/04/08 02:54:19;;;;;;;4.88;2.45;;;;;;;15.75;100.00;100945.69;5566254;26;20012;-78
2024/04/08 02:56:51;;;;;;;6.28;2.80;;;;;;;15.76;100.00;100949.19;5569018;26;20440;-78
2024/04/08 02:59:23;;;;;;;5.38;2.83;;;;;;;15.67;100.00;100943.03;5564154;26;20024;-78
2024/04/08 03:01:55;;;;;;;3.50;2.80;;;;;;;15.70;100.00;100945.34;5565205;26;20048;-75
2024/04/08 03:04:27;;;;;;;3.08;2.10;;;;;;;15.75;100.00;100976.56;5566592;26;20015;-78
2024/04/08 03:06:59;;;;;;;7.75;3.08;;;;;;;15.73;100.00;100976.75;5564910;26;20013;-79
2024/04/08 03:09:31;;;;;;;5.05;3.45;;;;;;;15.73;100.00;100984.66;5567472;26;20023;-78
2024/04/08 03:12:03;;;;;;;4.95;2.63;;;;;;;15.67;100.00;100972.09;5565504;26;20022;-78
2024/04/08 03:14:35;;;;;;;4.70;2.92;;;;;;;15.76;100.00;100980.88;5566638;26;20019;-77
2024/04/08 03:17:06;;;;;;;4.55;2.97;;;;;;;15.73;100.00;100979.38;5567570;26;20004;-76
2024/04/08 03:19:38;;;;;;;4.22;3.00;;;;;;;15.72;100.00;100974.25;5565915;26;20648;-76
2024/04/08 03:22:10;;;;;;;5.97;2.97;;;;;;;15.71;100.00;100972.59;5554537;26;20005;-77
2024/04/08 03:24:42;;;;;;;5.40;2.92;;;;;;;15.73;100.00;100970.63;5565050;26;20022;-78
2024/04/08 03:27:14;;;;;;;5.97;3.03;;;;;;;15.68;100.00;100960.56;5565684;26;20491;-79
2024/04/08 03:29:46;;;;;;;4.85;2.72;;;;;;;15.70;100.00;100949.81;5568650;26;20008;-77
2024/04/08 03:32:18;;;;;;;3.55;2.42;;;;;;;15.73;100.00;100958.25;5563870;26;20043;-78
2024/04/08 03:34:50;;;;;;;4.82;2.72;;;;;;;15.71;100.00;100938.25;5564068;26;20026;-78
2024/04/08 03:37:26;;;;;;;6.47;3.05;;;;;;;15.73;100.00;100934.47;5566995;26;20466;-76
2024/04/08 03:39:58;;;;;;;6.10;3.08;;;;;;;15.71;100.00;100925.06;5565704;26;20048;-78
2024/04/08 03:42:30;;;;;;;5.82;2.97;;;;;;;15.70;100.00;100921.59;5553675;26;20022;-76
2024/04/08 03:45:02;;;;;;;5.57;2.40;;;;;;;15.69;100.00;100924.41;5554669;26;20334;-75
2024/04/08 03:47:34;;;;;;;4.20;2.65;;;;;;;15.72;100.00;100924.06;5562028;26;20595;-77
2024/04/08 03:50:07;;;;;;;3.80;2.60;;;;;;;15.70;100.00;100912.84;5563570;26;20008;-75
2024/04/08 03:52:39;;;;;;;6.15;2.80;;;;;;;15.67;100.00;100900.78;5566136;26;20034;-78
2024/04/08 03:55:11;;;;;;;6.82;3.28;;;;;;;15.59;100.00;100895.44;5565846;26;20012;-78
2024/04/08 03:57:43;;;;;;;5.13;2.83;;;;;;;15.58;100.00;100891.16;5575423;26;20017;-78
2024/04/08 04:00:15;;;;;;;5.65;3.00;;;;;;;15.62;100.00;100884.56;5566481;26;20000;-78
2024/04/08 04:02:47;;;;;;;3.83;2.33;;;;;;;15.61;100.00;100874.16;5566277;26;20048;-78
2024/04/08 04:05:19;;;;;;;4.75;2.83;;;;;;;15.61;100.00;100864.44;5564420;26;20796;-75
2024/04/08 04:07:51;;;;;;;6.13;3.00;;;;;;;15.64;100.00;100869.38;5560390;26;20019;-77
2024/04/08 04:10:23;;;;;;;4.50;2.65;;;;;;;15.51;100.00;100869.84;5562922;26;20016;-78
2024/04/08 04:12:55;;;;;;;4.90;2.67;;;;;;;15.59;100.00;100882.25;5554566;26;20009;-78
2024/04/08 04:15:27;;;;;;;3.83;2.80;;;;;;;15.51;100.00;100880.41;5563509;26;20020;-77
2024/04/08 04:18:00;;;;;;;5.65;2.85;;;;;;;15.49;100.00;100871.84;5563483;26;20004;-79
2024/04/08 04:20:45;;;;;;;4.68;2.80;;;;;;;15.68;100.00;100862.84;5515228;21;20006;-76
2024/04/08 04:23:18;;;;;;;4.82;2.67;;;;;;;15.43;100.00;100861.91;5474300;27;20445;-76
2024/04/08 04:25:57;;;;;;;4.78;2.80;;;;;;;15.57;100.00;100863.94;5473657;27;20021;-76
2024/04/08 04:28:29;;;;;;;4.05;2.60;;;;;;;15.43;100.00;100855.81;5471151;27;19999;-75
2024/04/08 04:31:02;;;;;;;6.53;3.42;;;;;;;15.42;100.00;100857.63;5456370;27;20006;-77
2024/04/08 04:33:34;;;;;;;4.60;2.60;;;;;;;15.32;100.00;100844.56;5456934;27;20006;-75
2024/04/08 04:36:06;;;;;;;5.37;3.13;;;;;;;15.29;100.00;100858.06;5459145;27;20516;-76
2024/04/08 04:38:38;;;;;;;4.50;2.90;;;;;;;15.30;100.00;100862.38;5448857;27;20007;-76
2024/04/08 04:41:11;;;;;;;4.90;3.17;;;;;;;15.31;100.00;100865.84;5459987;27;20030;-75
2024/04/08 04:43:43;;;;;;;;;;;;;;;16.15;100.00;100883.31;5460224;27;20024;-77
2024/04/08 04:46:15;;;;;;;3.78;2.60;;;;;;;15.36;100.00;100892.56;5465166;27;19966;-77
2024/04/08 04:48:47;;;;;;;6.10;2.88;;;;;;;15.27;100.00;100897.00;5462113;27;20097;-76
2024/04/08 04:51:19;;;;;;;3.70;2.47;;;;;;;15.22;100.00;100896.63;5455006;27;20035;-77
2024/04/08 04:53:51;;;;;;;3.80;2.67;;;;;;;15.21;100.00;100915.28;5456503;27;20022;-77
2024/04/08 04:56:23;;;;;;;7.72;3.08;;;;;;;15.24;100.00;100907.88;5462258;27;20042;-75
2024/04/08 04:58:54;;;;;;;4.05;2.67;;;;;;;15.23;100.00;100914.16;5444434;27;20010;-75
2024/04/08 05:01:26;;;;;;;6.15;3.05;;;;;;;15.21;100.00;100904.72;5453766;27;20014;-77
2024/04/08 05:03:58;;;;;;;3.97;2.78;;;;;;;15.25;100.00;100904.25;5448471;27;20007;-76
2024/04/08 05:06:30;;;;;;;6.93;3.05;;;;;;;15.23;100.00;100903.59;5451498;27;20010;-77
2024/04/08 05:09:04;;;;;;;6.07;3.20;;;;;;;15.24;100.00;100914.97;5458045;27;20037;-75
2024/04/08 05:11:36;;;;;;;4.90;2.80;;;;;;;15.24;100.00;100923.72;5444255;27;20021;-74
2024/04/08 05:14:07;;;;;;;4.18;3.47;;;;;;;15.22;100.00;100928.31;5443791;27;20011;-75
2024/04/08 05:16:39;;;;;;;6.10;3.00;;;;;;;15.24;100.00;100939.56;5471144;27;20034;-76
2024/04/08 05:19:11;;;;;;;5.45;3.35;;;;;;;15.24;100.00;100938.72;5451515;27;20002;-75
2024/04/08 05:21:43;;;;;;;5.55;3.35;;;;;;;15.26;100.00;100947.31;5449538;27;20615;-77
2024/04/08 05:24:16;;;;;;;5.22;3.40;;;;;;;15.16;100.00;100936.06;5453467;27;20485;-75
2024/04/08 05:26:47;;;;;;;7.13;4.23;;;;;;;15.26;100.00;100958.69;5446448;27;20545;-77
2024/04/08 05:29:22;;;;;;;5.30;3.97;;;;;;;15.23;100.00;100972.22;5459277;27;20006;-75
2024/04/08 05:31:54;;;;;;;6.10;3.75;;;;;;;15.24;100.00;100970.41;5444701;27;20018;-75
2024/04/08 05:34:26;;;;;;;5.22;3.80;;;;;;;15.28;100.00;100959.38;5448303;27;20748;-76
2024/04/08 05:36:58;;;;;;;5.18;3.30;;;;;;;15.26;100.00;100929.66;5451502;27;20864;-74
2024/04/08 05:39:30;;;;;;;6.20;3.30;;;;;;;15.21;100.00;100888.91;5451487;27;20103;-77
2024/04/08 05:42:02;;;;;;;4.88;3.40;;;;;;;15.23;100.00;100869.28;5453695;27;20010;-76
2024/04/08 05:44:34;;;;;;;5.10;3.50;;;;;;;15.19;100.00;100841.56;5455558;27;20054;-77
2024/04/08 05:47:06;;;;;;;4.72;3.00;;;;;;;15.21;100.00;100847.50;5450712;27;20815;-77
2024/04/08 05:49:38;;;;;;;4.55;3.25;;;;;;;15.19;100.00;100854.75;5467143;27;20014;-77
2024/04/08 05:52:10;;;;;;;4.80;3.28;;;;;;;15.14;100.00;100867.59;5461862;27;20074;-77
2024/04/08 05:54:42;;;;;;;4.65;3.08;;;;;;;15.29;100.00;100888.91;5463507;27;20334;-75
2024/04/08 05:57:13;;;;;;;6.03;2.95;;;;;;;15.33;100.00;100887.63;5461058;27;20003;-77
2024/04/08 05:59:45;;;;;;;5.72;3.22;;;;;;;15.28;100.00;100885.47;5446608;27;19999;-75
2024/04/08 06:02:18;;;;;;;5.75;3.90;;;;;;;15.39;100.00;100907.28;5450883;27;20014;-75
2024/04/08 06:04:52;;;;;;;4.85;3.53;;;;;;;15.41;100.00;100911.41;5446419;27;20043;-75
2024/04/08 06:07:24;;;;;;;5.22;3.22;;;;;;;15.44;100.00;100915.53;5446852;27;20705;-77
2024/04/08 06:09:56;;;;;;;5.33;3.20;;;;;;;15.45;100.00;100917.19;5456691;27;20010;-77
2024/04/08 06:12:28;;;;;;;4.18;3.00;;;;;;;15.51;100.00;100920.00;5454945;27;20945;-77
2024/04/08 06:15:00;;;;;;;5.10;3.40;;;;;;;15.53;100.00;100918.06;5458934;27;20051;-74
2024/04/08 06:17:32;;;;;;;3.67;2.88;;;;;;;15.57;100.00;100919.38;5438870;27;20007;-77
2024/04/08 06:20:05;;;;;;;3.95;2.92;;;;;;;15.56;100.00;100922.16;5459777;27;20789;-75
2024/04/08 06:22:37;;;;;;;5.27;3.00;;;;;;;15.65;100.00;100938.88;5453454;27;20002;-77
2024/04/08 06:25:09;;;;;;;6.18;3.60;;;;;;;15.61;100.00;100943.66;5448329;27;20007;-77
2024/04/08 06:27:41;;;;;;;4.93;3.27;;;;;;;15.66;100.00;100944.03;5450099;27;20007;-76
2024/04/08 06:30:14;;;;;;;5.40;3.42;;;;;;;15.62;100.00;100945.31;5450058;27;20538;-76
2024/04/08 06:32:48;;;;;;;5.38;3.15;;;;;;;15.66;100.00;100938.75;5452724;27;20043;-76
2024/04/08 06:35:20;;;;;;;5.03;3.55;;;;;;;15.63;100.00;100930.28;5448155;27;20033;-76
2024/04/08 06:37:52;;;;;;;4.75;3.47;;;;;;;15.62;100.00;100924.19;5455460;27;20484;-75
2024/04/08 06:40:24;;;;;;;5.88;3.20;;;;;;;15.66;100.00;100907.06;5450468;27;20021;-76
2024/04/08 06:42:56;;;;;;;4.50;3.08;;;;;;;15.72;100.00;100922.25;5450098;27;20006;-76
2024/04/08 06:45:28;;;;;;;5.10;3.30;;;;;;;15.70;100.00;100905.75;5452091;27;20021;-77
2024/04/08 06:48:01;;;;;;;4.88;3.30;;;;;;;15.71;100.00;100902.09;5445681;27;20027;-77
2024/04/08 06:50:33;;;;;;;4.85;3.10;;;;;;;15.85;100.00;100918.31;5452866;27;20011;-77
2024/04/08 06:53:05;;;;;;;3.63;2.90;;;;;;;15.86;100.00;100915.50;5460611;27;20018;-77
2024/04/08 06:55:37;;;;;;;4.95;3.33;;;;;;;15.90;100.00;100908.06;5459182;27;20010;-75
2024/04/08 06:58:12;;;;;;;6.82;3.30;;;;;;;15.84;100.00;100890.25;5454122;27;20426;-76
2024/04/08 07:00:45;;;;;;;4.40;3.25;;;;;;;15.86;100.00;100897.00;5456902;27;20024;-77
2024/04/08 07:03:17;;;;;;;5.20;3.30;;;;;;;15.93;100.00;100899.84;5452611;27;20020;-76
2024/04/08 07:05:49;;;;;;;4.18;3.20;;;;;;;16.04;100.00;100908.25;5454501;27;20369;-77
2024/04/08 07:08:21;;;;;;;5.07;3.80;;;;;;;16.04;100.00;100900.34;5440213;27;20017;-77
2024/04/08 07:10:53;;;;;;;5.47;3.50;;;;;;;16.15;100.00;100912.41;5445496;27;20250;-76
2024/04/08 07:13:25;;;;;;;5.25;3.60;;;;;;;16.23;100.00;100898.38;5456403;27;20021;-76
2024/04/08 07:15:57;;;;;;;4.47;3.33;;;;;;;16.26;100.00;100898.84;5452725;27;20003;-75
2024/04/08 07:18:29;;;;;;;5.97;3.17;;;;;;;16.20;100.00;100878.38;5450602;27;20010;-76
2024/04/08 07:21:02;;;;;;;5.13;3.53;;;;;;;16.46;100.00;100917.03;5454530;27;20003;-74
2024/04/08 07:23:34;;;;;;;6.40;3.50;;;;;;;16.48;100.00;100917.69;5453587;27;20021;-76
2024/04/08 07:26:06;;;;;;;6.60;3.70;;;;;;;16.59;100.00;100921.78;5449834;27;20006;-74
2024/04/08 07:28:40;;;;;;;4.88;3.47;;;;;;;16.65;100.00;100919.31;5459505;27;20452;-75
2024/04/08 07:31:11;;;;;;;4.07;3.20;;;;;;;16.65;100.00;100916.66;5458650;27;20002;-77
2024/04/08 07:33:43;;;;;;;5.45;3.15;;;;;;;16.59;100.00;100893.50;5450037;27;20022;-76
2024/04/08 07:36:15;;;;;;;5.95;3.10;;;;;;;16.81;100.00;100893.84;5464428;27;20679;-76
2024/04/08 07:38:47;;;;;;;5.13;3.30;;;;;;;16.84;100.00;100873.16;5449043;27;20014;-75
2024/04/08 07:41:19;;;;;;;4.85;2.90;;;;;;;16.83;100.00;100862.75;5444069;27;20011;-77
2024/04/08 07:43:51;;;;;;;3.65;2.78;;;;;;;17.01;100.00;100868.66;5451355;27;20007;-77
2024/04/08 07:46:23;;;;;;;5.20;3.22;;;;;;;17.10;100.00;100883.50;5459837;27;20086;-76
2024/04/08 07:48:55;;;;;;;5.75;2.80;;;;;;;17.14;100.00;100876.84;5453704;27;19998;-76
2024/04/08 07:51:27;;;;;;;4.85;2.88;;;;;;;17.24;100.00;100882.78;5453516;27;20043;-77
2024/04/08 07:53:59;;;;;;;5.70;3.63;;;;;;;17.30;100.00;100893.66;5451585;27;20088;-77
2024/04/08 07:56:31;;;;;;;5.88;3.28;;;;;;;17.38;100.00;100885.69;5455235;27;20082;-75
2024/04/08 07:59:03;;;;;;;5.00;3.20;;;;;;;17.40;100.00;100889.81;5460871;27;20003;-78
2024/04/08 08:01:35;;;;;;;7.37;3.60;;;;;;;17.54;100.00;100879.47;5459917;27;20006;-76
2024/04/08 08:04:07;;;;;;;5.05;2.97;;;;;;;17.54;100.00;100869.72;5445913;27;20014;-77
2024/04/08 08:06:40;;;;;;;4.80;2.92;;;;;;;17.67;100.00;100869.94;5449962;27;20018;-77
2024/04/08 08:09:12;;;;;;;4.53;3.33;;;;;;;17.73;100.00;100858.66;5445966;27;20834;-77
2024/04/08 08:11:44;;;;;;;4.80;3.20;;;;;;;17.81;100.00;100852.50;5451859;27;20105;-77
2024/04/08 08:14:16;;;;;;;5.05;3.15;;;;;;;17.95;100.00;100849.06;5447545;27;20614;-77
2024/04/08 08:16:48;;;;;;;5.15;3.08;;;;;;;18.00;100.00;100864.44;5451906;27;20014;-75
2024/04/08 08:19:20;;;;;;;5.32;3.50;;;;;;;17.96;100.00;100848.06;5447506;27;20007;-77
2024/04/08 08:21:52;;;;;;;5.00;3.15;;;;;;;18.19;100.00;100847.22;5455210;27;20011;-78
2024/04/08 08:24:24;;;;;;;5.93;3.53;;;;;;;18.20;100.00;100844.38;5458959;27;20025;-76
2024/04/08 08:26:56;;;;;;;5.38;3.33;;;;;;;18.29;100.00;100837.16;5450191;27;20014;-76
2024/04/08 08:29:28;;;;;;;5.60;3.08;;;;;;;18.42;100.00;100831.25;5454169;27;19999;-77
2024/04/08 08:32:01;;;;;;;4.15;2.80;;;;;;;18.59;100.00;100843.31;5451514;27;20029;-75
2024/04/08 08:34:33;;;;;;;;;;;;;;;19.51;100.00;100865.94;5446036;27;20003;-76
2024/04/08 08:37:05;;;;;;;5.57;2.85;;;;;;;18.83;100.00;100852.88;5454886;27;20300;-77
2024/04/08 08:39:39;;;;;;;5.63;3.20;;;;;;;18.93;100.00;100860.53;5451325;27;20039;-75
2024/04/08 08:42:18;;;;;;;6.63;3.45;;;;;;;18.93;100.00;100857.88;5462649;27;20017;-77
2024/04/08 08:44:54;;;;;;;4.03;2.88;;;;;;;18.81;100.00;100852.22;5452731;27;20017;-75
2024/04/08 08:47:26;;;;;;;5.07;2.75;;;;;;;18.84;100.00;100849.22;5450796;27;20017;-75
2024/04/08 08:49:58;;;;;;;5.68;2.80;;;;;;;18.98;100.00;100847.56;5454907;27;20046;-74
2024/04/08 08:52:30;;;;;;;3.45;2.38;;;;;;;19.05;100.00;100845.78;5461571;27;20020;-77
2024/04/08 08:55:03;;;;;;;5.25;2.30;;;;;;;19.14;100.00;100846.53;5450828;27;20356;-74
2024/04/08 08:57:35;;;;;;;4.15;2.08;;;;;;;19.19;100.00;100844.94;5457793;27;20026;-77
2024/04/08 09:00:14;;;;;;;4.78;2.08;;;;;;;19.41;100.00;100848.47;5458344;27;20360;-76
2024/04/08 09:02:48;;;;;;;3.28;1.80;;;;;;;19.38;100.00;100846.19;5456970;27;20260;-76
2024/04/08 09:05:19;;;;;;;4.15;2.00;;;;;;;19.29;100.00;100860.59;5456690;27;20046;-75
2024/04/08 09:07:51;;;;;;;2.65;1.80;;;;;;;19.43;100.00;100858.91;5452813;27;20021;-76
2024/04/08 09:10:26;;;;;;;5.00;2.20;;;;;;;19.58;100.00;100830.44;5453280;27;20019;-76
2024/04/08 09:12:58;;;;;;;3.92;1.90;;;;;;;19.64;100.00;100840.34;5456488;27;20034;-76
2024/04/08 09:15:31;;;;;;;4.05;1.45;;;;;;;19.76;95.81;100845.16;5456119;27;20025;-78
2024/04/08 09:18:04;;;;;;;4.30;1.70;;;;;;;19.82;89.19;100839.09;5454563;27;20042;-77
2024/04/08 09:20:36;;;;;;;3.92;1.60;;;;;;;19.97;93.87;100842.50;5460760;27;20002;-77
2024/04/08 09:23:08;;;;;;;3.40;1.40;;;;;;;20.05;80.92;100833.56;5457958;27;20037;-75
2024/04/08 09:25:41;;;;;;;6.60;1.60;;;;;;;20.12;83.40;100826.47;5459381;27;20003;-77
2024/04/08 09:28:13;;;;;;;3.90;1.50;;;;;;;20.05;82.19;100806.97;5455057;27;20034;-76
2024/04/08 09:30:45;;;;;;;3.67;1.50;;;;;;;20.13;81.96;100810.28;5456237;27;20038;-77
2024/04/08 09:33:17;;;;;;;3.60;1.57;;;;;;;20.29;83.33;100814.50;5462102;27;20011;-76
2024/04/08 09:35:50;;;;;;;2.57;1.20;;;;;;;20.38;75.93;100821.31;5459121;27;20017;-75
2024/04/08 09:38:22;;;;;;;3.90;1.60;;;;;;;20.44;81.42;100810.91;5458387;27;20329;-75
2024/04/08 09:40:55;;;;;;;;;;;;;;;21.25;76.70;100808.41;5459027;27;20574;-78
2024/04/08 09:43:28;;;;;;;3.53;1.50;;;;;;;20.52;77.51;100808.94;5455133;27;19952;-75
2024/04/08 09:46:03;;;;;;;2.58;1.23;;;;;;;20.54;71.77;100812.22;5449859;27;20283;-77
2024/04/08 09:48:35;;;;;;;4.20;1.45;;;;;;;20.47;72.99;100789.22;5450595;27;20035;-77
2024/04/08 09:51:11;;;;;;;3.23;1.43;;;;;;;20.67;73.39;100800.81;5457965;27;20000;-76
2024/04/08 09:53:42;;;;;;;3.33;1.30;;;;;;;20.80;73.96;100800.91;5457000;27;20055;-75
2024/04/08 09:56:16;;;;;;;3.83;1.00;;;;;;;20.83;69.58;100786.34;5456288;27;20070;-76
2024/04/08 09:58:58;;;;;;;3.35;1.58;;;;;;;21.23;73.16;100791.81;5458994;27;20042;-78
2024/04/08 10:01:30;;;;;;;3.42;1.50;;;;;;;21.16;70.10;100794.44;5455547;27;20054;-77
2024/04/08 10:04:06;;;;;;;2.85;1.13;;;;;;;21.17;64.92;100790.75;5452668;27;20066;-78
2024/04/08 10:06:39;;;;;;;2.58;1.35;;;;;;;21.17;67.21;100796.09;5457875;27;20034;-75
2024/04/08 10:09:13;;;;;;;2.72;1.45;;;;;;;21.11;65.33;100795.06;5459813;27;20496;-77
2024/04/08 10:11:46;;;;;;;2.38;1.33;;;;;;;21.22;64.98;100799.00;5456772;27;20066;-77
2024/04/08 10:14:19;;;;;;;3.63;1.38;;;;;;;21.17;62.80;100808.59;5450383;27;20007;-77
2024/04/08 10:16:51;;;;;;;3.22;1.10;;;;;;;21.27;65.00;100799.19;5455901;27;20018;-76
2024/04/08 10:19:23;;;;;;;3.13;1.10;;;;;;;21.44;64.04;100804.19;5459457;27;20050;-76
2024/04/08 10:22:01;;;;;;;3.72;1.35;;;;;;;21.65;64.29;100804.00;5451689;27;20017;-77
2024/04/08 10:24:36;;;;;;;3.08;1.27;;;;;;;21.64;62.92;100790.91;5467297;27;20042;-75
2024/04/08 10:27:09;;;;;;;3.30;1.33;;;;;;;21.71;65.00;100781.88;5455977;27;20025;-77
2024/04/08 10:29:41;;;;;;;3.05;1.25;;;;;;;21.91;60.93;100802.38;5449709;27;20464;-77
2024/04/08 10:32:13;;;;;;;;;;;;;;;22.76;60.25;100798.72;5440200;27;20021;-77
2024/04/08 10:34:45;;;;;;;2.65;0.95;;;;;;;21.87;57.65;100804.63;5449719;27;19998;-76
2024/04/08 10:37:17;;;;;;;1.93;0.90;;;;;;;22.01;61.22;100794.75;5462206;27;20029;-77
2024/04/08 10:39:58;;;;;;;2.67;1.10;;;;;;;22.25;62.02;100796.03;5457891;27;20297;-77
2024/04/08 10:42:30;;;;;;;3.22;1.15;;;;;;;21.92;60.44;100761.34;5456604;27;20046;-77
2024/04/08 10:45:02;;;;;;;2.47;1.30;;;;;;;21.96;59.19;100782.06;5449055;27;20360;-76
2024/04/08 10:47:34;;;;;;;2.95;1.23;;;;;;;21.89;58.12;100775.91;5458477;27;20236;-77
2024/04/08 10:50:09;;;;;;;3.00;1.00;;;;;;;21.83;58.15;100748.22;5451145;27;20069;-76
2024/04/08 10:52:41;;;;;;;2.45;1.00;;;;;;;21.85;59.92;100748.81;5455069;27;20482;-77
2024/04/08 10:55:13;;;;;;;2.55;1.00;;;;;;;21.95;59.09;100747.59;5456968;27;20439;-77
2024/04/08 10:57:45;;;;;;;2.20;1.10;;;;;;;22.03;59.02;100755.38;5453184;27;20007;-77
2024/04/08 11:00:17;;;;;;;3.17;1.02;;;;;;;21.92;57.89;100748.81;5454554;27;20042;-78
2024/04/08 11:02:50;;;;;;;3.60;1.40;;;;;;;21.71;57.74;100749.06;5454906;27;20469;-78
2024/04/08 11:05:22;;;;;;;3.88;1.10;;;;;;;21.83;61.76;100750.06;5468707;27;20009;-78
2024/04/08 11:07:58;;;;;;;2.20;1.30;;;;;;;21.81;59.64;100741.44;5457987;27;20030;-75
2024/04/08 11:10:30;;;;;;;2.30;1.00;;;;;;;21.64;60.01;100729.56;5454387;27;20476;-77
2024/04/08 11:13:02;;;;;;;5.45;1.23;;;;;;;21.76;59.33;100736.72;5454747;27;20017;-78
2024/04/08 11:15:34;;;;;;;3.30;1.27;;;;;;;21.80;59.54;100740.63;5453900;27;20854;-75
2024/04/08 11:18:10;;;;;;;2.10;0.93;;;;;;;21.91;60.13;100736.53;5454220;27;20042;-77
2024/04/08 11:20:42;;;;;;;2.15;1.00;;;;;;;21.82;60.21;100743.06;5458402;27;20285;-77
2024/04/08 11:23:14;;;;;;;4.77;1.20;;;;;;;21.85;59.45;100743.47;5455920;27;20031;-76
2024/04/08 11:25:47;;;;;;;2.00;1.30;;;;;;;21.94;62.23;100744.13;5458078;27;20050;-78
2024/04/08 11:28:23;;;;;;;3.25;1.38;;;;;;;21.96;59.96;100744.72;5450889;27;20831;-77
2024/04/08 11:30:55;;;;;;;2.80;1.10;;;;;;;21.92;59.39;100746.16;5463756;27;20003;-77
2024/04/08 11:33:28;;;;;;;5.03;1.40;;;;;;;22.08;60.70;100747.56;5444574;27;20017;-75
2024/04/08 11:36:00;;;;;;;2.75;1.20;;;;;;;21.96;58.02;100735.88;5459944;27;20013;-75
2024/04/08 11:38:32;;;;;;;;;;;;;;;22.77;55.28;100755.00;5448359;27;20340;-77
2024/04/08 11:41:04;;;;;;;3.25;1.35;;;;;;;22.07;58.63;100738.75;5455601;27;19943;-77
2024/04/08 11:43:36;;;;;;;4.00;1.53;;;;;;;22.09;59.59;100734.03;5458373;27;20010;-76